sensor_id;sensor_type;location;lat;lon;timestamp;P1;durP1;ratioP1;P2;durP2;ratioP2
13311;SDS011;34033;48.672;9.376;2023-03-12T00:00:34;5.03;;;3.20;;
13311;SDS011;34033;48.672;9.376;2023-03-12T00:03:00;5.17;;;2.90;;
13311;SDS011;34033;48.672;9.376;2023-03-12T00:05:25;3.73;;;2.57;;
13311;SDS011;34033;48.672;9.376;2023-03-12T00:07:51;3.73;;;2.47;;
13311;SDS011;34033;48.672;9.376;2023-03-12T00:10:17;3.03;;;2.57;;
13311;SDS011;34033;48.672;9.376;2023-03-12T00:12:43;4.67;;;2.73;;
13311;SDS011;34033;48.672;9.376;2023-03-12T00:15:09;3.73;;;2.47;;
13311;SDS011;34033;48.672;9.376;2023-03-12T00:17:35;4.30;;;2.80;;
13311;SDS011;34033;48.672;9.376;2023-03-12T00:20:00;4.37;;;2.53;;
13311;SDS011;34033;48.672;9.376;2023-03-12T00:22:27;4.43;;;2.73;;
13311;SDS011;34033;48.672;9.376;2023-03-12T00:24:53;3.70;;;2.70;;
13311;SDS011;34033;48.672;9.376;2023-03-12T00:27:19;3.53;;;2.63;;
13311;SDS011;34033;48.672;9.376;2023-03-12T00:29:45;2.83;;;2.30;;
13311;SDS011;34033;48.672;9.376;2023-03-12T00:32:11;8.83;;;3.07;;
13311;SDS011;34033;48.672;9.376;2023-03-12T00:34:36;6.50;;;2.67;;
13311;SDS011;34033;48.672;9.376;2023-03-12T00:37:02;3.27;;;2.63;;
13311;SDS011;34033;48.672;9.376;2023-03-12T00:39:27;5.53;;;2.80;;
13311;SDS011;34033;48.672;9.376;2023-03-12T00:41:52;4.00;;;2.80;;
13311;SDS011;34033;48.672;9.376;2023-03-12T00:44:18;3.67;;;3.23;;
13311;SDS011;34033;48.672;9.376;2023-03-12T00:46:43;3.83;;;2.90;;
13311;SDS011;34033;48.672;9.376;2023-03-12T00:49:08;3.40;;;2.83;;
13311;SDS011;34033;48.672;9.376;2023-03-12T00:51:35;4.73;;;2.73;;
13311;SDS011;34033;48.672;9.376;2023-03-12T00:54:01;4.10;;;2.80;;
13311;SDS011;34033;48.672;9.376;2023-03-12T00:56:26;4.60;;;3.40;;
13311;SDS011;34033;48.672;9.376;2023-03-12T00:58:52;5.37;;;3.57;;
13311;SDS011;34033;48.672;9.376;2023-03-12T01:01:17;5.40;;;3.53;;
13311;SDS011;34033;48.672;9.376;2023-03-12T01:03:43;3.73;;;3.30;;
13311;SDS011;34033;48.672;9.376;2023-03-12T01:06:10;5.37;;;3.60;;
13311;SDS011;34033;48.672;9.376;2023-03-12T01:08:36;4.77;;;3.87;;
13311;SDS011;34033;48.672;9.376;2023-03-12T01:11:01;5.90;;;4.67;;
13311;SDS011;34033;48.672;9.376;2023-03-12T01:13:27;6.20;;;4.00;;
13311;SDS011;34033;48.672;9.376;2023-03-12T01:15:52;4.00;;;3.57;;
13311;SDS011;34033;48.672;9.376;2023-03-12T01:18:17;6.73;;;3.30;;
13311;SDS011;34033;48.672;9.376;2023-03-12T01:20:43;3.80;;;2.87;;
13311;SDS011;34033;48.672;9.376;2023-03-12T01:23:08;5.03;;;2.90;;
13311;SDS011;34033;48.672;9.376;2023-03-12T01:25:34;2.90;;;2.57;;
13311;SDS011;34033;48.672;9.376;2023-03-12T01:28:00;2.53;;;2.33;;
13311;SDS011;34033;48.672;9.376;2023-03-12T01:30:26;3.57;;;2.30;;
13311;SDS011;34033;48.672;9.376;2023-03-12T01:32:51;3.90;;;2.60;;
13311;SDS011;34033;48.672;9.376;2023-03-12T01:35:17;3.80;;;2.50;;
13311;SDS011;34033;48.672;9.376;2023-03-12T01:37:42;4.60;;;3.30;;
13311;SDS011;34033;48.672;9.376;2023-03-12T01:40:11;4.00;;;2.50;;
13311;SDS011;34033;48.672;9.376;2023-03-12T01:42:39;2.90;;;2.50;;
13311;SDS011;34033;48.672;9.376;2023-03-12T01:45:05;3.97;;;2.70;;
13311;SDS011;34033;48.672;9.376;2023-03-12T01:47:31;3.90;;;2.63;;
13311;SDS011;34033;48.672;9.376;2023-03-12T01:49:56;3.50;;;2.50;;
13311;SDS011;34033;48.672;9.376;2023-03-12T01:52:25;4.67;;;2.67;;
13311;SDS011;34033;48.672;9.376;2023-03-12T01:57:30;4.00;;;2.90;;
13311;SDS011;34033;48.672;9.376;2023-03-12T02:00:22;5.17;;;2.53;;
13311;SDS011;34033;48.672;9.376;2023-03-12T02:02:49;2.47;;;2.20;;
13311;SDS011;34033;48.672;9.376;2023-03-12T02:07:47;6.50;;;2.33;;
13311;SDS011;34033;48.672;9.376;2023-03-12T02:10:12;2.73;;;2.37;;
13311;SDS011;34033;48.672;9.376;2023-03-12T02:12:38;3.43;;;2.30;;
13311;SDS011;34033;48.672;9.376;2023-03-12T02:15:03;3.37;;;2.50;;
13311;SDS011;34033;48.672;9.376;2023-03-12T02:17:30;5.70;;;2.70;;
13311;SDS011;34033;48.672;9.376;2023-03-12T02:22:24;2.87;;;2.60;;
13311;SDS011;34033;48.672;9.376;2023-03-12T02:24:51;3.77;;;2.83;;
13311;SDS011;34033;48.672;9.376;2023-03-12T02:27:21;2.97;;;2.67;;
13311;SDS011;34033;48.672;9.376;2023-03-12T02:29:47;6.97;;;3.30;;
13311;SDS011;34033;48.672;9.376;2023-03-12T02:32:19;4.80;;;3.00;;
13311;SDS011;34033;48.672;9.376;2023-03-12T02:34:47;3.80;;;2.97;;
13311;SDS011;34033;48.672;9.376;2023-03-12T02:37:14;2.93;;;2.47;;
13311;SDS011;34033;48.672;9.376;2023-03-12T02:39:40;6.77;;;3.40;;
13311;SDS011;34033;48.672;9.376;2023-03-12T02:42:06;4.73;;;3.10;;
13311;SDS011;34033;48.672;9.376;2023-03-12T02:44:32;5.97;;;3.20;;
13311;SDS011;34033;48.672;9.376;2023-03-12T02:47:00;4.63;;;2.90;;
13311;SDS011;34033;48.672;9.376;2023-03-12T02:49:27;3.90;;;2.90;;
13311;SDS011;34033;48.672;9.376;2023-03-12T02:51:55;4.17;;;2.90;;
13311;SDS011;34033;48.672;9.376;2023-03-12T02:54:21;3.30;;;2.73;;
13311;SDS011;34033;48.672;9.376;2023-03-12T02:56:47;2.80;;;2.50;;
13311;SDS011;34033;48.672;9.376;2023-03-12T02:59:13;3.53;;;3.00;;
13311;SDS011;34033;48.672;9.376;2023-03-12T03:01:39;6.80;;;3.00;;
13311;SDS011;34033;48.672;9.376;2023-03-12T03:04:06;4.13;;;2.80;;
13311;SDS011;34033;48.672;9.376;2023-03-12T03:06:33;4.83;;;2.80;;
13311;SDS011;34033;48.672;9.376;2023-03-12T03:08:59;3.37;;;2.60;;
13311;SDS011;34033;48.672;9.376;2023-03-12T03:11:25;3.73;;;2.60;;
13311;SDS011;34033;48.672;9.376;2023-03-12T03:13:51;4.23;;;3.07;;
13311;SDS011;34033;48.672;9.376;2023-03-12T03:16:17;3.63;;;2.77;;
13311;SDS011;34033;48.672;9.376;2023-03-12T03:18:42;3.27;;;2.80;;
13311;SDS011;34033;48.672;9.376;2023-03-12T03:21:08;6.60;;;3.40;;
13311;SDS011;34033;48.672;9.376;2023-03-12T03:23:34;5.23;;;2.97;;
13311;SDS011;34033;48.672;9.376;2023-03-12T03:26:01;5.20;;;2.87;;
13311;SDS011;34033;48.672;9.376;2023-03-12T03:28:28;4.80;;;3.10;;
13311;SDS011;34033;48.672;9.376;2023-03-12T03:30:55;3.80;;;2.53;;
13311;SDS011;34033;48.672;9.376;2023-03-12T03:33:28;3.27;;;2.67;;
13311;SDS011;34033;48.672;9.376;2023-03-12T03:35:55;3.73;;;2.83;;
13311;SDS011;34033;48.672;9.376;2023-03-12T03:38:23;3.50;;;2.70;;
13311;SDS011;34033;48.672;9.376;2023-03-12T03:40:49;3.57;;;2.90;;
13311;SDS011;34033;48.672;9.376;2023-03-12T03:43:14;3.87;;;2.53;;
13311;SDS011;34033;48.672;9.376;2023-03-12T03:45:39;4.50;;;3.30;;
13311;SDS011;34033;48.672;9.376;2023-03-12T03:48:05;4.50;;;2.67;;
13311;SDS011;34033;48.672;9.376;2023-03-12T03:50:30;3.80;;;2.60;;
13311;SDS011;34033;48.672;9.376;2023-03-12T03:52:56;4.00;;;3.07;;
13311;SDS011;34033;48.672;9.376;2023-03-12T03:55:21;3.90;;;2.83;;
13311;SDS011;34033;48.672;9.376;2023-03-12T03:57:47;2.30;;;2.10;;
13311;SDS011;34033;48.672;9.376;2023-03-12T04:00:12;3.27;;;2.67;;
13311;SDS011;34033;48.672;9.376;2023-03-12T04:02:41;3.70;;;2.60;;
13311;SDS011;34033;48.672;9.376;2023-03-12T04:05:08;3.43;;;2.60;;
13311;SDS011;34033;48.672;9.376;2023-03-12T04:07:33;4.03;;;2.90;;
13311;SDS011;34033;48.672;9.376;2023-03-12T04:09:59;3.53;;;2.93;;
13311;SDS011;34033;48.672;9.376;2023-03-12T04:12:24;3.97;;;2.60;;
13311;SDS011;34033;48.672;9.376;2023-03-12T04:14:50;3.07;;;2.70;;
13311;SDS011;34033;48.672;9.376;2023-03-12T04:17:16;4.33;;;3.17;;
13311;SDS011;34033;48.672;9.376;2023-03-12T04:19:41;3.67;;;2.70;;
13311;SDS011;34033;48.672;9.376;2023-03-12T04:22:07;4.27;;;3.13;;
13311;SDS011;34033;48.672;9.376;2023-03-12T04:24:32;4.33;;;2.90;;
13311;SDS011;34033;48.672;9.376;2023-03-12T04:26:57;3.73;;;2.57;;
13311;SDS011;34033;48.672;9.376;2023-03-12T04:29:23;4.37;;;3.00;;
13311;SDS011;34033;48.672;9.376;2023-03-12T04:31:49;2.60;;;2.40;;
13311;SDS011;34033;48.672;9.376;2023-03-12T04:34:14;3.20;;;2.50;;
13311;SDS011;34033;48.672;9.376;2023-03-12T04:36:39;3.77;;;2.63;;
13311;SDS011;34033;48.672;9.376;2023-03-12T04:39:05;4.50;;;2.67;;
13311;SDS011;34033;48.672;9.376;2023-03-12T04:41:31;4.87;;;2.77;;
13311;SDS011;34033;48.672;9.376;2023-03-12T04:43:57;4.70;;;2.87;;
13311;SDS011;34033;48.672;9.376;2023-03-12T04:46:22;5.40;;;2.53;;
13311;SDS011;34033;48.672;9.376;2023-03-12T04:48:48;4.07;;;2.73;;
13311;SDS011;34033;48.672;9.376;2023-03-12T04:51:13;2.93;;;2.43;;
13311;SDS011;34033;48.672;9.376;2023-03-12T04:53:38;5.27;;;3.00;;
13311;SDS011;34033;48.672;9.376;2023-03-12T04:56:04;2.63;;;2.20;;
13311;SDS011;34033;48.672;9.376;2023-03-12T04:58:30;3.37;;;2.50;;
13311;SDS011;34033;48.672;9.376;2023-03-12T05:00:55;3.40;;;2.37;;
13311;SDS011;34033;48.672;9.376;2023-03-12T05:03:20;2.90;;;2.30;;
13311;SDS011;34033;48.672;9.376;2023-03-12T05:05:47;3.13;;;2.60;;
13311;SDS011;34033;48.672;9.376;2023-03-12T05:08:12;4.20;;;2.43;;
13311;SDS011;34033;48.672;9.376;2023-03-12T05:10:38;5.20;;;2.70;;
13311;SDS011;34033;48.672;9.376;2023-03-12T05:13:03;3.63;;;2.50;;
13311;SDS011;34033;48.672;9.376;2023-03-12T05:15:28;3.77;;;2.70;;
13311;SDS011;34033;48.672;9.376;2023-03-12T05:17:54;3.27;;;2.50;;
13311;SDS011;34033;48.672;9.376;2023-03-12T05:20:19;5.13;;;2.77;;
13311;SDS011;34033;48.672;9.376;2023-03-12T05:22:45;3.00;;;2.57;;
13311;SDS011;34033;48.672;9.376;2023-03-12T05:25:10;3.23;;;2.57;;
13311;SDS011;34033;48.672;9.376;2023-03-12T05:27:35;5.20;;;2.83;;
13311;SDS011;34033;48.672;9.376;2023-03-12T05:30:02;4.53;;;2.83;;
13311;SDS011;34033;48.672;9.376;2023-03-12T05:32:28;3.20;;;2.50;;
13311;SDS011;34033;48.672;9.376;2023-03-12T05:34:53;4.00;;;2.73;;
13311;SDS011;34033;48.672;9.376;2023-03-12T05:37:19;3.17;;;2.53;;
13311;SDS011;34033;48.672;9.376;2023-03-12T05:39:44;3.50;;;2.53;;
13311;SDS011;34033;48.672;9.376;2023-03-12T05:42:14;2.90;;;2.70;;
13311;SDS011;34033;48.672;9.376;2023-03-12T05:44:40;2.97;;;2.10;;
13311;SDS011;34033;48.672;9.376;2023-03-12T05:47:06;4.00;;;2.70;;
13311;SDS011;34033;48.672;9.376;2023-03-12T05:49:32;2.57;;;2.37;;
13311;SDS011;34033;48.672;9.376;2023-03-12T05:51:57;7.63;;;2.90;;
13311;SDS011;34033;48.672;9.376;2023-03-12T05:54:23;2.93;;;2.60;;
13311;SDS011;34033;48.672;9.376;2023-03-12T05:56:48;4.77;;;2.43;;
13311;SDS011;34033;48.672;9.376;2023-03-12T05:59:13;2.93;;;2.43;;
13311;SDS011;34033;48.672;9.376;2023-03-12T06:01:39;4.10;;;2.60;;
13311;SDS011;34033;48.672;9.376;2023-03-12T06:04:05;3.80;;;2.50;;
13311;SDS011;34033;48.672;9.376;2023-03-12T06:06:31;3.60;;;2.30;;
13311;SDS011;34033;48.672;9.376;2023-03-12T06:08:57;2.83;;;2.20;;
13311;SDS011;34033;48.672;9.376;2023-03-12T06:11:23;2.57;;;2.37;;
13311;SDS011;34033;48.672;9.376;2023-03-12T06:13:49;2.43;;;2.23;;
13311;SDS011;34033;48.672;9.376;2023-03-12T06:16:15;2.57;;;2.37;;
13311;SDS011;34033;48.672;9.376;2023-03-12T06:18:43;2.87;;;2.30;;
13311;SDS011;34033;48.672;9.376;2023-03-12T06:21:19;4.63;;;2.93;;
13311;SDS011;34033;48.672;9.376;2023-03-12T06:23:46;2.73;;;2.53;;
13311;SDS011;34033;48.672;9.376;2023-03-12T06:26:12;2.37;;;2.10;;
13311;SDS011;34033;48.672;9.376;2023-03-12T06:28:38;2.90;;;2.20;;
13311;SDS011;34033;48.672;9.376;2023-03-12T06:31:04;2.47;;;2.27;;
13311;SDS011;34033;48.672;9.376;2023-03-12T06:33:30;2.50;;;2.10;;
13311;SDS011;34033;48.672;9.376;2023-03-12T06:35:56;2.53;;;2.33;;
13311;SDS011;34033;48.672;9.376;2023-03-12T06:38:24;2.20;;;2.00;;
13311;SDS011;34033;48.672;9.376;2023-03-12T06:43:26;2.23;;;2.00;;
13311;SDS011;34033;48.672;9.376;2023-03-12T06:45:53;2.30;;;2.10;;
13311;SDS011;34033;48.672;9.376;2023-03-12T06:48:20;3.83;;;2.30;;
13311;SDS011;34033;48.672;9.376;2023-03-12T06:50:46;2.43;;;1.90;;
13311;SDS011;34033;48.672;9.376;2023-03-12T06:53:11;2.30;;;2.10;;
13311;SDS011;34033;48.672;9.376;2023-03-12T06:55:37;4.53;;;2.33;;
13311;SDS011;34033;48.672;9.376;2023-03-12T06:58:02;2.27;;;1.97;;
13311;SDS011;34033;48.672;9.376;2023-03-12T07:00:28;3.07;;;2.27;;
13311;SDS011;34033;48.672;9.376;2023-03-12T07:02:54;4.10;;;2.37;;
13311;SDS011;34033;48.672;9.376;2023-03-12T07:05:19;2.77;;;2.07;;
13311;SDS011;34033;48.672;9.376;2023-03-12T07:07:45;2.23;;;2.03;;
13311;SDS011;34033;48.672;9.376;2023-03-12T07:10:10;2.27;;;2.07;;
13311;SDS011;34033;48.672;9.376;2023-03-12T07:12:36;2.47;;;2.27;;
13311;SDS011;34033;48.672;9.376;2023-03-12T07:15:01;2.97;;;2.13;;
13311;SDS011;34033;48.672;9.376;2023-03-12T07:17:27;2.97;;;2.67;;
13311;SDS011;34033;48.672;9.376;2023-03-12T07:19:52;3.13;;;2.20;;
13311;SDS011;34033;48.672;9.376;2023-03-12T07:22:18;2.53;;;2.33;;
13311;SDS011;34033;48.672;9.376;2023-03-12T07:24:43;4.63;;;2.53;;
13311;SDS011;34033;48.672;9.376;2023-03-12T07:27:08;3.17;;;2.53;;
13311;SDS011;34033;48.672;9.376;2023-03-12T07:29:34;7.13;;;3.97;;
13311;SDS011;34033;48.672;9.376;2023-03-12T07:31:59;4.40;;;3.13;;
13311;SDS011;34033;48.672;9.376;2023-03-12T07:34:24;2.63;;;2.43;;
13311;SDS011;34033;48.672;9.376;2023-03-12T07:36:50;2.67;;;2.47;;
13311;SDS011;34033;48.672;9.376;2023-03-12T07:39:15;3.50;;;2.57;;
13311;SDS011;34033;48.672;9.376;2023-03-12T07:41:41;3.20;;;2.50;;
13311;SDS011;34033;48.672;9.376;2023-03-12T07:44:06;4.57;;;2.37;;
13311;SDS011;34033;48.672;9.376;2023-03-12T07:46:32;5.33;;;2.80;;
13311;SDS011;34033;48.672;9.376;2023-03-12T07:48:57;6.57;;;3.37;;
13311;SDS011;34033;48.672;9.376;2023-03-12T07:51:23;5.43;;;3.50;;
13311;SDS011;34033;48.672;9.376;2023-03-12T07:53:48;6.93;;;4.07;;
13311;SDS011;34033;48.672;9.376;2023-03-12T07:56:13;5.60;;;3.40;;
13311;SDS011;34033;48.672;9.376;2023-03-12T07:58:39;2.83;;;2.63;;
13311;SDS011;34033;48.672;9.376;2023-03-12T08:01:04;5.53;;;2.80;;
13311;SDS011;34033;48.672;9.376;2023-03-12T08:03:30;4.13;;;2.63;;
13311;SDS011;34033;48.672;9.376;2023-03-12T08:05:57;3.67;;;2.97;;
13311;SDS011;34033;48.672;9.376;2023-03-12T08:08:24;4.33;;;3.00;;
13311;SDS011;34033;48.672;9.376;2023-03-12T08:10:50;5.50;;;3.47;;
13311;SDS011;34033;48.672;9.376;2023-03-12T08:13:15;4.43;;;2.73;;
13311;SDS011;34033;48.672;9.376;2023-03-12T08:15:42;6.00;;;3.30;;
13311;SDS011;34033;48.672;9.376;2023-03-12T08:18:07;7.87;;;4.03;;
13311;SDS011;34033;48.672;9.376;2023-03-12T08:20:33;7.50;;;3.93;;
13311;SDS011;34033;48.672;9.376;2023-03-12T08:22:58;2.93;;;2.73;;
13311;SDS011;34033;48.672;9.376;2023-03-12T08:25:23;3.67;;;3.17;;
13311;SDS011;34033;48.672;9.376;2023-03-12T08:27:49;5.17;;;3.30;;
13311;SDS011;34033;48.672;9.376;2023-03-12T08:30:14;4.73;;;3.00;;
13311;SDS011;34033;48.672;9.376;2023-03-12T08:32:39;6.33;;;3.20;;
13311;SDS011;34033;48.672;9.376;2023-03-12T08:35:05;4.00;;;2.90;;
13311;SDS011;34033;48.672;9.376;2023-03-12T08:37:30;5.63;;;3.23;;
13311;SDS011;34033;48.672;9.376;2023-03-12T08:39:56;5.17;;;3.63;;
13311;SDS011;34033;48.672;9.376;2023-03-12T08:42:22;5.03;;;3.27;;
13311;SDS011;34033;48.672;9.376;2023-03-12T08:44:47;3.83;;;3.00;;
13311;SDS011;34033;48.672;9.376;2023-03-12T08:47:12;5.07;;;3.67;;
13311;SDS011;34033;48.672;9.376;2023-03-12T08:49:38;5.13;;;3.47;;
13311;SDS011;34033;48.672;9.376;2023-03-12T08:52:03;5.40;;;3.73;;
13311;SDS011;34033;48.672;9.376;2023-03-12T08:54:29;3.90;;;3.50;;
13311;SDS011;34033;48.672;9.376;2023-03-12T08:56:54;5.13;;;3.23;;
13311;SDS011;34033;48.672;9.376;2023-03-12T08:59:19;4.90;;;4.03;;
13311;SDS011;34033;48.672;9.376;2023-03-12T09:01:46;4.00;;;3.60;;
13311;SDS011;34033;48.672;9.376;2023-03-12T09:04:12;3.60;;;3.30;;
13311;SDS011;34033;48.672;9.376;2023-03-12T09:06:37;4.33;;;3.30;;
13311;SDS011;34033;48.672;9.376;2023-03-12T09:09:02;4.93;;;3.90;;
13311;SDS011;34033;48.672;9.376;2023-03-12T09:11:34;4.27;;;3.50;;
13311;SDS011;34033;48.672;9.376;2023-03-12T09:14:09;6.40;;;4.07;;
13311;SDS011;34033;48.672;9.376;2023-03-12T09:16:58;4.70;;;3.63;;
13311;SDS011;34033;48.672;9.376;2023-03-12T09:19:53;4.23;;;3.50;;
13311;SDS011;34033;48.672;9.376;2023-03-12T09:22:21;7.77;;;3.70;;
13311;SDS011;34033;48.672;9.376;2023-03-12T09:24:50;5.10;;;4.00;;
13311;SDS011;34033;48.672;9.376;2023-03-12T09:27:20;6.53;;;4.13;;
13311;SDS011;34033;48.672;9.376;2023-03-12T09:29:54;4.63;;;3.77;;
13311;SDS011;34033;48.672;9.376;2023-03-12T09:32:25;5.90;;;4.13;;
13311;SDS011;34033;48.672;9.376;2023-03-12T09:34:51;5.53;;;4.20;;
13311;SDS011;34033;48.672;9.376;2023-03-12T09:37:16;6.47;;;4.00;;
13311;SDS011;34033;48.672;9.376;2023-03-12T09:39:42;6.17;;;3.80;;
13311;SDS011;34033;48.672;9.376;2023-03-12T09:42:11;6.87;;;4.20;;
13311;SDS011;34033;48.672;9.376;2023-03-12T09:44:45;4.57;;;3.67;;
13311;SDS011;34033;48.672;9.376;2023-03-12T09:47:18;6.00;;;4.27;;
13311;SDS011;34033;48.672;9.376;2023-03-12T09:49:47;6.73;;;4.17;;
13311;SDS011;34033;48.672;9.376;2023-03-12T09:57:27;5.07;;;4.23;;
13311;SDS011;34033;48.672;9.376;2023-03-12T09:59:56;7.37;;;4.87;;
13311;SDS011;34033;48.672;9.376;2023-03-12T10:17:06;6.40;;;3.57;;
13311;SDS011;34033;48.672;9.376;2023-03-12T10:27:32;7.73;;;4.60;;
13311;SDS011;34033;48.672;9.376;2023-03-12T10:30:01;9.43;;;5.50;;
13311;SDS011;34033;48.672;9.376;2023-03-12T10:32:39;8.53;;;5.93;;
13311;SDS011;34033;48.672;9.376;2023-03-12T10:35:14;5.17;;;4.53;;
13311;SDS011;34033;48.672;9.376;2023-03-12T10:37:43;5.50;;;3.97;;
13311;SDS011;34033;48.672;9.376;2023-03-12T10:40:16;9.00;;;3.90;;
13311;SDS011;34033;48.672;9.376;2023-03-12T10:42:46;4.03;;;3.63;;
13311;SDS011;34033;48.672;9.376;2023-03-12T10:45:15;4.77;;;3.27;;
13311;SDS011;34033;48.672;9.376;2023-03-12T10:47:51;4.63;;;3.43;;
13311;SDS011;34033;48.672;9.376;2023-03-12T10:50:25;3.20;;;2.90;;
13311;SDS011;34033;48.672;9.376;2023-03-12T10:52:53;3.43;;;3.10;;
13311;SDS011;34033;48.672;9.376;2023-03-12T10:55:37;3.40;;;3.10;;
13311;SDS011;34033;48.672;9.376;2023-03-12T10:58:03;3.83;;;3.00;;
13311;SDS011;34033;48.672;9.376;2023-03-12T11:00:29;3.30;;;2.77;;
13311;SDS011;34033;48.672;9.376;2023-03-12T11:02:59;3.73;;;3.20;;
13311;SDS011;34033;48.672;9.376;2023-03-12T11:07:56;3.37;;;3.00;;
13311;SDS011;34033;48.672;9.376;2023-03-12T11:10:37;3.53;;;3.13;;
13311;SDS011;34033;48.672;9.376;2023-03-12T11:15:56;2.50;;;2.30;;
13311;SDS011;34033;48.672;9.376;2023-03-12T11:20:52;2.87;;;2.20;;
13311;SDS011;34033;48.672;9.376;2023-03-12T11:23:27;2.00;;;1.80;;
13311;SDS011;34033;48.672;9.376;2023-03-12T11:25:55;2.50;;;2.30;;
13311;SDS011;34033;48.672;9.376;2023-03-12T11:28:27;11.83;;;2.70;;
13311;SDS011;34033;48.672;9.376;2023-03-12T11:30:59;2.80;;;2.53;;
13311;SDS011;34033;48.672;9.376;2023-03-12T11:33:25;3.57;;;2.70;;
13311;SDS011;34033;48.672;9.376;2023-03-12T11:42:05;5.23;;;3.00;;
13311;SDS011;34033;48.672;9.376;2023-03-12T11:50:54;1.13;;;0.93;;
13311;SDS011;34033;48.672;9.376;2023-03-12T12:13:48;1.83;;;1.10;;
13311;SDS011;34033;48.672;9.376;2023-03-12T12:18:56;1.07;;;0.73;;
13311;SDS011;34033;48.672;9.376;2023-03-12T12:21:28;0.60;;;0.60;;
13311;SDS011;34033;48.672;9.376;2023-03-12T12:26:37;1.10;;;1.00;;
13311;SDS011;34033;48.672;9.376;2023-03-12T12:29:31;1.57;;;0.80;;
13311;SDS011;34033;48.672;9.376;2023-03-12T12:31:57;2.33;;;0.73;;
13311;SDS011;34033;48.672;9.376;2023-03-12T12:34:32;1.40;;;1.13;;
13311;SDS011;34033;48.672;9.376;2023-03-12T12:40:39;2.07;;;1.23;;
13311;SDS011;34033;48.672;9.376;2023-03-12T12:43:25;2.73;;;0.93;;
13311;SDS011;34033;48.672;9.376;2023-03-12T12:45:57;1.17;;;0.77;;
13311;SDS011;34033;48.672;9.376;2023-03-12T12:51:16;2.87;;;0.70;;
13311;SDS011;34033;48.672;9.376;2023-03-12T12:57:10;2.20;;;0.80;;
13311;SDS011;34033;48.672;9.376;2023-03-12T13:02:30;2.43;;;1.10;;
13311;SDS011;34033;48.672;9.376;2023-03-12T13:04:58;2.50;;;1.27;;
13311;SDS011;34033;48.672;9.376;2023-03-12T13:12:20;1.27;;;1.00;;
13311;SDS011;34033;48.672;9.376;2023-03-12T13:14:52;1.87;;;0.83;;
13311;SDS011;34033;48.672;9.376;2023-03-12T13:17:21;1.23;;;1.10;;
13311;SDS011;34033;48.672;9.376;2023-03-12T13:19:57;2.47;;;1.87;;
13311;SDS011;34033;48.672;9.376;2023-03-12T13:22:26;3.80;;;1.47;;
13311;SDS011;34033;48.672;9.376;2023-03-12T13:25:08;1.40;;;1.00;;
13311;SDS011;34033;48.672;9.376;2023-03-12T13:27:44;3.43;;;1.17;;
13311;SDS011;34033;48.672;9.376;2023-03-12T13:45:40;0.60;;;0.60;;
13311;SDS011;34033;48.672;9.376;2023-03-12T13:48:20;1.40;;;1.00;;
13311;SDS011;34033;48.672;9.376;2023-03-12T13:50:52;0.90;;;0.57;;
13311;SDS011;34033;48.672;9.376;2023-03-12T13:53:22;2.40;;;0.50;;
13311;SDS011;34033;48.672;9.376;2023-03-12T13:55:58;0.93;;;0.70;;
13311;SDS011;34033;48.672;9.376;2023-03-12T13:58:29;0.77;;;0.53;;
13311;SDS011;34033;48.672;9.376;2023-03-12T14:00:57;1.53;;;0.57;;
13311;SDS011;34033;48.672;9.376;2023-03-12T14:03:40;3.60;;;0.63;;
13311;SDS011;34033;48.672;9.376;2023-03-12T14:06:10;0.60;;;0.40;;
13311;SDS011;34033;48.672;9.376;2023-03-12T14:08:41;0.43;;;0.37;;
13311;SDS011;34033;48.672;9.376;2023-03-12T14:11:21;0.67;;;0.53;;
13311;SDS011;34033;48.672;9.376;2023-03-12T14:16:59;0.77;;;0.70;;
13311;SDS011;34033;48.672;9.376;2023-03-12T14:19:27;0.30;;;0.30;;
13311;SDS011;34033;48.672;9.376;2023-03-12T14:21:55;0.90;;;0.80;;
13311;SDS011;34033;48.672;9.376;2023-03-12T14:26:49;1.00;;;0.40;;
13311;SDS011;34033;48.672;9.376;2023-03-12T14:32:03;1.03;;;0.80;;
13311;SDS011;34033;48.672;9.376;2023-03-12T14:35:23;0.93;;;0.50;;
13311;SDS011;34033;48.672;9.376;2023-03-12T14:43:19;1.67;;;0.50;;
13311;SDS011;34033;48.672;9.376;2023-03-12T14:45:56;1.13;;;0.60;;
13311;SDS011;34033;48.672;9.376;2023-03-12T14:48:26;2.27;;;0.50;;
13311;SDS011;34033;48.672;9.376;2023-03-12T14:50:56;1.93;;;0.50;;
13311;SDS011;34033;48.672;9.376;2023-03-12T14:53:30;1.93;;;0.80;;
13311;SDS011;34033;48.672;9.376;2023-03-12T14:56:01;1.37;;;0.57;;
13311;SDS011;34033;48.672;9.376;2023-03-12T14:58:29;1.43;;;0.73;;
13311;SDS011;34033;48.672;9.376;2023-03-12T15:00:56;1.13;;;0.73;;
13311;SDS011;34033;48.672;9.376;2023-03-12T15:03:23;1.17;;;0.53;;
13311;SDS011;34033;48.672;9.376;2023-03-12T15:05:50;1.50;;;0.80;;
13311;SDS011;34033;48.672;9.376;2023-03-12T15:08:16;2.43;;;1.17;;
13311;SDS011;34033;48.672;9.376;2023-03-12T15:10:50;0.80;;;0.63;;
13311;SDS011;34033;48.672;9.376;2023-03-12T15:13:18;0.60;;;0.60;;
13311;SDS011;34033;48.672;9.376;2023-03-12T15:15:47;0.60;;;0.60;;
13311;SDS011;34033;48.672;9.376;2023-03-12T15:18:18;1.33;;;0.90;;
13311;SDS011;34033;48.672;9.376;2023-03-12T15:20:55;1.60;;;0.53;;
13311;SDS011;34033;48.672;9.376;2023-03-12T15:23:23;4.80;;;0.90;;
13311;SDS011;34033;48.672;9.376;2023-03-12T15:26:35;2.60;;;0.90;;
13311;SDS011;34033;48.672;9.376;2023-03-12T15:28:35;0.67;;;0.67;;
13311;SDS011;34033;48.672;9.376;2023-03-12T15:33:31;0.70;;;0.70;;
13311;SDS011;34033;48.672;9.376;2023-03-12T15:35:57;1.10;;;0.90;;
13311;SDS011;34033;48.672;9.376;2023-03-12T15:38:23;0.70;;;0.60;;
13311;SDS011;34033;48.672;9.376;2023-03-12T15:40:50;1.73;;;0.90;;
13311;SDS011;34033;48.672;9.376;2023-03-12T15:43:20;2.50;;;0.87;;
13311;SDS011;34033;48.672;9.376;2023-03-12T15:45:47;2.53;;;1.10;;
13311;SDS011;34033;48.672;9.376;2023-03-12T15:50:51;1.53;;;0.83;;
13311;SDS011;34033;48.672;9.376;2023-03-12T15:55:42;2.67;;;0.80;;
13311;SDS011;34033;48.672;9.376;2023-03-12T15:58:34;0.93;;;0.50;;
13311;SDS011;34033;48.672;9.376;2023-03-12T16:01:24;0.57;;;0.50;;
13311;SDS011;34033;48.672;9.376;2023-03-12T16:03:52;1.33;;;0.60;;
13311;SDS011;34033;48.672;9.376;2023-03-12T16:06:18;1.47;;;0.90;;
13311;SDS011;34033;48.672;9.376;2023-03-12T16:08:50;1.63;;;0.90;;
13311;SDS011;34033;48.672;9.376;2023-03-12T16:11:18;1.07;;;0.90;;
13311;SDS011;34033;48.672;9.376;2023-03-12T16:13:45;1.97;;;0.90;;
13311;SDS011;34033;48.672;9.376;2023-03-12T16:16:12;1.07;;;0.93;;
13311;SDS011;34033;48.672;9.376;2023-03-12T16:18:39;0.83;;;0.83;;
13311;SDS011;34033;48.672;9.376;2023-03-12T16:21:05;2.63;;;1.03;;
13311;SDS011;34033;48.672;9.376;2023-03-12T16:23:31;1.77;;;1.10;;
13311;SDS011;34033;48.672;9.376;2023-03-12T16:25:57;2.50;;;1.40;;
13311;SDS011;34033;48.672;9.376;2023-03-12T16:28:23;2.43;;;1.60;;
13311;SDS011;34033;48.672;9.376;2023-03-12T16:30:49;1.90;;;1.43;;
13311;SDS011;34033;48.672;9.376;2023-03-12T16:33:17;1.40;;;1.30;;
13311;SDS011;34033;48.672;9.376;2023-03-12T16:35:45;1.80;;;1.30;;
13311;SDS011;34033;48.672;9.376;2023-03-12T16:38:10;1.50;;;1.20;;
13311;SDS011;34033;48.672;9.376;2023-03-12T16:40:37;2.37;;;1.37;;
13311;SDS011;34033;48.672;9.376;2023-03-12T16:43:04;1.83;;;1.30;;
13311;SDS011;34033;48.672;9.376;2023-03-12T16:45:35;1.93;;;1.23;;
13311;SDS011;34033;48.672;9.376;2023-03-12T16:48:02;1.97;;;1.43;;
13311;SDS011;34033;48.672;9.376;2023-03-12T16:50:29;2.13;;;1.30;;
13311;SDS011;34033;48.672;9.376;2023-03-12T16:52:55;1.67;;;1.20;;
13311;SDS011;34033;48.672;9.376;2023-03-12T16:55:21;3.03;;;1.57;;
13311;SDS011;34033;48.672;9.376;2023-03-12T16:57:52;1.30;;;1.20;;
13311;SDS011;34033;48.672;9.376;2023-03-12T17:00:23;2.17;;;1.70;;
13311;SDS011;34033;48.672;9.376;2023-03-12T17:02:51;8.67;;;5.03;;
13311;SDS011;34033;48.672;9.376;2023-03-12T17:05:21;6.67;;;4.83;;
13311;SDS011;34033;48.672;9.376;2023-03-12T17:07:50;3.43;;;3.13;;
13311;SDS011;34033;48.672;9.376;2023-03-12T17:10:15;4.40;;;2.20;;